createdAt,value
2023-02-11T00:01:18.250Z,37.83
2023-02-11T00:04:23.124Z,41.50
2023-02-11T00:07:27.623Z,47.83
2023-02-11T00:10:39.365Z,60.37
2023-02-11T00:13:45.703Z,48.25
2023-02-11T00:16:50.455Z,56.38
2023-02-11T00:19:57.472Z,58.35
2023-02-11T00:23:02.009Z,62.80
2023-02-11T00:26:16.892Z,67.33
2023-02-11T00:29:30.781Z,66.28
2023-02-11T00:32:38.706Z,75.70
2023-02-11T00:35:46.024Z,67.05
2023-02-11T00:38:52.053Z,55.03
2023-02-11T00:42:02.127Z,46.55
2023-02-11T00:45:06.914Z,37.75
2023-02-11T00:48:14.015Z,24.03
2023-02-11T00:51:21.018Z,14.07
2023-02-11T00:54:27.821Z,16.33
2023-02-11T00:57:36.086Z,15.93
2023-02-11T01:00:46.471Z,19.65
2023-02-11T01:03:51.079Z,26.77
2023-02-11T01:06:55.438Z,25.58
2023-02-11T01:09:59.671Z,26.55
2023-02-11T01:13:07.719Z,42.60
2023-02-11T01:16:13.169Z,28.65
2023-02-11T01:19:17.488Z,39.78
2023-02-11T01:22:23.536Z,35.50
2023-02-11T01:25:28.048Z,24.70
2023-02-11T01:28:32.715Z,26.13
2023-02-11T01:31:37.938Z,23.25
2023-02-11T01:34:42.467Z,21.27
2023-02-11T01:37:47.049Z,23.40
2023-02-11T01:40:55.105Z,19.98
2023-02-11T01:43:59.715Z,23.15
2023-02-11T01:47:08.332Z,27.75
2023-02-11T01:50:12.696Z,20.65
2023-02-11T01:53:37.303Z,18.77
2023-02-11T01:57:04.998Z,17.73
2023-02-11T02:00:14.708Z,18.75
2023-02-11T02:03:23.380Z,64.88
2023-02-11T02:06:34.481Z,22.75
2023-02-11T02:09:43.108Z,36.97
2023-02-11T02:12:47.756Z,48.22
2023-02-11T02:16:02.701Z,21.58
2023-02-11T02:19:41.374Z,18.70
2023-02-11T02:22:59.496Z,16.20
2023-02-11T02:26:15.668Z,20.15
2023-02-11T02:32:51.170Z,16.65
2023-02-11T02:35:58.603Z,70.97
2023-02-11T02:39:11.870Z,23.08
2023-02-11T02:42:17.470Z,15.27
2023-02-11T02:48:36.625Z,229.20
2023-02-11T02:51:47.475Z,13.73
2023-02-11T02:55:10.223Z,54.50
2023-02-11T02:58:43.461Z,29.20
2023-02-11T03:02:06.395Z,14.07
2023-02-11T03:09:56.013Z,37.22
2023-02-11T03:13:04.079Z,14.10
2023-02-11T03:16:23.042Z,16.50
2023-02-11T03:19:41.582Z,10.20
2023-02-11T03:23:07.775Z,8.70
2023-02-11T03:26:42.067Z,13.32
2023-02-11T03:30:18.904Z,27.65
2023-02-11T03:36:52.584Z,10.73
2023-02-11T03:40:10.142Z,8.65
2023-02-11T03:43:25.489Z,11.20
2023-02-11T03:46:51.796Z,14.37
2023-02-11T03:49:58.966Z,10.80
2023-02-11T03:53:04.878Z,27.30
2023-02-11T03:56:24.037Z,13.80
2023-02-11T03:59:30.782Z,13.70
2023-02-11T04:02:46.833Z,13.70
2023-02-11T04:05:51.585Z,11.15
2023-02-11T04:08:58.232Z,11.13
2023-02-11T04:12:02.575Z,21.65
2023-02-11T04:15:07.076Z,60.83
2023-02-11T04:18:11.437Z,13.05
2023-02-11T04:21:15.890Z,12.88
2023-02-11T04:24:20.283Z,20.98
2023-02-11T04:27:24.792Z,13.30
2023-02-11T04:30:29.380Z,21.15
2023-02-11T04:33:34.082Z,13.07
2023-02-11T04:36:38.430Z,15.15
2023-02-11T04:39:42.929Z,14.90
2023-02-11T04:42:47.259Z,26.20
2023-02-11T04:45:51.681Z,26.15
2023-02-11T04:48:57.529Z,12.75
2023-02-11T04:55:06.516Z,14.13
2023-02-11T04:58:11.013Z,15.67
2023-02-11T05:01:17.515Z,13.65
2023-02-11T05:04:22.028Z,15.32
2023-02-11T05:07:26.282Z,9.80
2023-02-11T05:10:30.182Z,9.98
2023-02-11T05:13:35.085Z,9.20
2023-02-11T05:16:39.778Z,9.50
2023-02-11T05:19:46.320Z,9.60
2023-02-11T05:22:50.852Z,12.45
2023-02-11T05:25:55.342Z,10.35
2023-02-11T05:28:59.227Z,8.48
2023-02-11T05:32:03.478Z,10.35
2023-02-11T05:35:08.929Z,10.93
2023-02-11T05:38:15.604Z,10.73
2023-02-11T05:41:19.980Z,10.82
2023-02-11T05:44:24.301Z,12.30
2023-02-11T05:47:28.987Z,11.23
2023-02-11T05:50:33.484Z,8.75
2023-02-11T05:53:41.389Z,9.30
2023-02-11T05:56:48.796Z,9.50
2023-02-11T06:02:57.396Z,7.43
2023-02-11T06:06:01.966Z,16.27
2023-02-11T06:09:07.934Z,15.18
2023-02-11T06:15:16.698Z,7.50
2023-02-11T06:18:21.093Z,11.63
2023-02-11T06:21:33.563Z,13.15
2023-02-11T06:25:00.243Z,19.77
2023-02-11T06:28:08.441Z,7.57
2023-02-11T06:31:13.162Z,18.65
2023-02-11T06:34:17.517Z,18.13
2023-02-11T06:37:22.091Z,9.95
2023-02-11T06:40:26.679Z,20.00
2023-02-11T06:43:31.269Z,35.75
2023-02-11T06:46:35.364Z,23.10
2023-02-11T06:49:40.076Z,13.75
2023-02-11T06:52:44.704Z,9.18
2023-02-11T06:55:49.635Z,11.82
2023-02-11T06:58:57.808Z,7.32
2023-02-11T07:02:02.248Z,8.07
2023-02-11T07:05:08.456Z,7.38
2023-02-11T07:08:13.104Z,8.43
2023-02-11T07:11:20.607Z,10.32
2023-02-11T07:14:24.933Z,7.25
2023-02-11T07:17:32.693Z,8.13
2023-02-11T07:20:41.088Z,5.90
2023-02-11T07:23:45.775Z,8.20
2023-02-11T07:26:49.981Z,7.13
2023-02-11T07:29:54.398Z,7.85
2023-02-11T07:32:58.497Z,7.47
2023-02-11T07:36:03.786Z,8.77
2023-02-11T07:39:08.387Z,16.60
2023-02-11T07:42:12.604Z,12.95
2023-02-11T07:45:17.121Z,15.20
2023-02-11T07:48:21.264Z,23.20
2023-02-11T07:51:28.712Z,21.00
2023-02-11T07:54:32.862Z,19.67
2023-02-11T07:57:37.117Z,19.92
2023-02-11T08:00:41.638Z,22.42
2023-02-11T08:03:45.749Z,15.85
2023-02-11T08:06:51.537Z,11.73
2023-02-11T08:09:56.404Z,11.70
2023-02-11T08:13:00.921Z,17.50
2023-02-11T08:16:06.820Z,17.67
2023-02-11T08:19:17.900Z,10.60
2023-02-11T08:22:22.538Z,14.60
2023-02-11T08:25:27.363Z,10.43
2023-02-11T08:28:32.275Z,10.03
2023-02-11T08:31:40.671Z,10.70
2023-02-11T08:34:45.255Z,14.13
2023-02-11T08:37:55.283Z,12.73
2023-02-11T08:41:01.964Z,13.00
2023-02-11T08:44:09.066Z,16.50
2023-02-11T08:47:13.446Z,16.35
2023-02-11T08:50:17.713Z,19.75
2023-02-11T08:53:22.544Z,23.15
2023-02-11T08:56:27.709Z,15.93
2023-02-11T08:59:35.474Z,15.73
2023-02-11T09:02:40.737Z,17.35
2023-02-11T09:05:51.055Z,18.13
2023-02-11T09:08:57.716Z,22.83
2023-02-11T09:12:02.313Z,30.85
2023-02-11T09:15:06.732Z,27.30
2023-02-11T09:18:11.064Z,29.25
2023-02-11T09:21:18.599Z,48.08
2023-02-11T09:24:26.129Z,35.47
2023-02-11T09:27:33.458Z,30.23
2023-02-11T09:30:39.007Z,28.02
2023-02-11T09:33:48.613Z,31.40
2023-02-11T09:36:53.524Z,34.03
2023-02-11T09:39:57.997Z,32.40
2023-02-11T09:43:09.725Z,47.63
2023-02-11T09:46:17.659Z,53.08
2023-02-11T09:49:27.302Z,74.35
2023-02-11T09:53:21.458Z,47.70
2023-02-11T09:56:26.689Z,59.55
2023-02-11T09:59:31.113Z,99.13
2023-02-11T10:02:58.693Z,77.78
2023-02-11T10:06:41.471Z,64.20
2023-02-11T10:09:59.071Z,68.53
2023-02-11T10:13:42.101Z,54.60
2023-02-11T10:17:00.003Z,62.38
2023-02-11T10:20:28.746Z,57.88
2023-02-11T10:23:37.904Z,36.78
2023-02-11T10:26:43.038Z,45.33
2023-02-11T10:30:03.644Z,43.25
2023-02-11T10:33:24.313Z,49.17
2023-02-11T10:36:35.464Z,48.67
2023-02-11T10:39:40.772Z,47.53
2023-02-11T10:42:55.697Z,47.53
2023-02-11T10:46:03.971Z,44.85
2023-02-11T10:49:37.451Z,43.70
2023-02-11T10:52:42.088Z,42.13
2023-02-11T10:55:58.353Z,36.25
2023-02-11T10:59:19.751Z,33.25
2023-02-11T11:02:32.729Z,32.25
2023-02-11T11:05:52.252Z,39.75
2023-02-11T11:08:56.633Z,39.78
2023-02-11T11:12:03.750Z,42.42
2023-02-11T11:15:36.855Z,42.47
2023-02-11T11:18:50.887Z,51.13
2023-02-11T11:21:57.541Z,49.00
2023-02-11T11:25:02.437Z,53.13
2023-02-11T11:28:07.917Z,48.55
2023-02-11T11:31:20.306Z,53.80
2023-02-11T11:34:41.359Z,77.93
2023-02-11T11:37:46.645Z,57.65
2023-02-11T11:44:31.156Z,55.92
2023-02-11T11:47:57.670Z,50.72
2023-02-11T11:51:05.983Z,39.97
2023-02-11T11:54:19.054Z,34.63
2023-02-11T11:57:31.888Z,32.13
2023-02-11T12:00:59.938Z,36.60
2023-02-11T12:04:24.437Z,39.92
2023-02-11T12:07:37.493Z,41.63
2023-02-11T12:10:51.677Z,36.80
2023-02-11T12:14:07.762Z,32.65
2023-02-11T12:17:23.540Z,34.80
2023-02-11T12:20:53.226Z,36.58
2023-02-11T12:24:30.387Z,51.88
2023-02-11T12:27:45.252Z,40.28
2023-02-11T12:35:05.399Z,41.42
2023-02-11T12:38:40.535Z,39.95
2023-02-11T12:43:14.321Z,40.42
2023-02-11T12:46:55.859Z,35.72
2023-02-11T12:50:19.193Z,37.65
2023-02-11T12:53:51.911Z,45.75
2023-02-11T12:57:01.771Z,36.42
2023-02-11T13:00:28.781Z,40.15
2023-02-11T13:04:01.182Z,43.25
2023-02-11T13:07:33.315Z,77.93
2023-02-11T13:10:54.080Z,84.15
2023-02-11T13:14:23.527Z,52.72
2023-02-11T13:18:41.199Z,66.28
2023-02-11T13:21:59.068Z,67.85
2023-02-11T13:25:26.831Z,74.70
2023-02-11T13:28:56.863Z,79.03
2023-02-11T13:32:22.519Z,111.20
2023-02-11T13:35:38.437Z,117.97
2023-02-11T13:38:52.440Z,103.93
2023-02-11T13:42:05.386Z,95.38
2023-02-11T13:45:37.455Z,96.88
2023-02-11T13:48:51.005Z,100.07
2023-02-11T13:51:56.953Z,53.65
2023-02-11T13:55:28.917Z,49.88
2023-02-11T13:58:33.165Z,67.18
2023-02-11T14:01:43.663Z,50.50
2023-02-11T14:05:25.077Z,51.15
2023-02-11T14:08:47.844Z,48.38
2023-02-11T14:12:15.685Z,45.13
2023-02-11T14:15:22.258Z,41.13
2023-02-11T14:18:52.769Z,43.22
2023-02-11T14:22:04.717Z,43.53
2023-02-11T14:25:23.529Z,56.90
2023-02-11T14:28:36.605Z,55.30
2023-02-11T14:31:55.787Z,41.67
2023-02-11T14:35:11.632Z,53.25
2023-02-11T14:38:46.678Z,40.30
2023-02-11T14:41:56.975Z,29.05
2023-02-11T14:45:12.923Z,34.25
2023-02-11T14:48:28.740Z,34.55
2023-02-11T14:51:46.252Z,38.70
2023-02-11T14:55:01.100Z,41.20
2023-02-11T14:58:26.306Z,41.50
2023-02-11T15:01:36.643Z,32.28
2023-02-11T15:04:44.489Z,31.48
2023-02-11T15:07:58.223Z,29.52
2023-02-11T15:11:13.188Z,27.83
2023-02-11T15:14:29.734Z,30.17
2023-02-11T15:17:36.510Z,27.13
2023-02-11T15:20:42.808Z,22.73
2023-02-11T15:23:57.763Z,21.60
2023-02-11T15:27:16.438Z,23.83
2023-02-11T15:33:43.784Z,24.40
2023-02-11T15:36:51.391Z,23.88
2023-02-11T15:40:09.708Z,22.25
2023-02-11T15:43:14.090Z,19.17
2023-02-11T15:46:22.775Z,14.70
2023-02-11T15:49:28.402Z,20.30
2023-02-11T15:52:34.057Z,22.05
2023-02-11T15:55:42.463Z,25.30
2023-02-11T15:58:49.473Z,23.88
2023-02-11T16:01:55.768Z,19.75
2023-02-11T16:05:10.875Z,19.98
2023-02-11T16:08:36.284Z,29.83
2023-02-11T16:11:49.686Z,23.00
2023-02-11T16:14:54.071Z,30.30
2023-02-11T16:18:02.451Z,20.95
2023-02-11T16:21:16.767Z,16.15
2023-02-11T16:24:25.832Z,12.13
2023-02-11T16:27:42.033Z,10.95
2023-02-11T16:30:46.964Z,10.40
2023-02-11T16:33:53.153Z,9.98
2023-02-11T16:36:57.724Z,9.38
2023-02-11T16:40:01.910Z,10.10
2023-02-11T16:43:07.997Z,9.35
2023-02-11T16:46:16.930Z,8.65
2023-02-11T16:49:32.855Z,8.18
2023-02-11T16:52:38.326Z,9.50
2023-02-11T16:55:45.941Z,9.90
2023-02-11T16:58:50.078Z,14.35
2023-02-11T17:01:56.080Z,12.38
2023-02-11T17:05:06.549Z,25.25
2023-02-11T17:08:13.736Z,27.70
2023-02-11T17:11:23.676Z,18.90
2023-02-11T17:14:32.253Z,13.90
2023-02-11T17:17:39.457Z,9.68
2023-02-11T17:20:46.923Z,15.27
2023-02-11T17:23:54.360Z,18.30
2023-02-11T17:27:01.459Z,12.88
2023-02-11T17:30:14.629Z,13.32
2023-02-11T17:33:19.834Z,12.73
2023-02-11T17:36:32.055Z,12.05
2023-02-11T17:39:40.788Z,12.00
2023-02-11T17:42:45.424Z,10.90
2023-02-11T17:45:52.904Z,10.00
2023-02-11T17:49:00.468Z,9.40
2023-02-11T17:52:05.297Z,10.73
2023-02-11T17:55:09.979Z,9.70
2023-02-11T17:58:14.148Z,9.40
2023-02-11T18:01:18.509Z,8.75
2023-02-11T18:04:22.909Z,9.60
2023-02-11T18:07:28.090Z,8.82
2023-02-11T18:10:32.743Z,8.70
2023-02-11T18:13:37.509Z,7.50
2023-02-11T18:16:44.460Z,8.00
2023-02-11T18:19:49.630Z,7.63
2023-02-11T18:22:53.720Z,7.88
2023-02-11T18:26:00.737Z,7.00
2023-02-11T18:29:07.750Z,9.00
2023-02-11T18:32:12.320Z,7.40
2023-02-11T18:35:20.938Z,7.33
2023-02-11T18:38:26.428Z,8.05
2023-02-11T18:41:30.743Z,8.57
2023-02-11T18:44:35.177Z,8.95
2023-02-11T18:47:40.547Z,10.90
2023-02-11T18:50:57.972Z,11.75
2023-02-11T18:54:04.911Z,13.90
2023-02-11T18:57:11.160Z,13.73
2023-02-11T19:00:16.469Z,13.55
2023-02-11T19:03:23.949Z,14.90
2023-02-11T19:06:35.486Z,15.25
2023-02-11T19:09:48.970Z,12.93
2023-02-11T19:12:59.905Z,8.90
2023-02-11T19:16:11.089Z,9.70
2023-02-11T19:19:19.403Z,10.68
2023-02-11T19:22:23.963Z,9.75
2023-02-11T19:25:36.098Z,10.95
2023-02-11T19:28:40.143Z,14.88
2023-02-11T19:31:47.335Z,17.15
2023-02-11T19:34:53.904Z,13.50
2023-02-11T19:38:00.226Z,14.57
2023-02-11T19:41:07.121Z,15.93
2023-02-11T19:44:14.850Z,9.52
2023-02-11T19:47:23.144Z,10.60
2023-02-11T19:50:30.166Z,9.95
2023-02-11T19:53:34.601Z,9.20
2023-02-11T19:56:38.979Z,8.00
2023-02-11T19:59:43.413Z,8.90
2023-02-11T20:02:47.935Z,12.50
2023-02-11T20:05:53.600Z,7.88
2023-02-11T20:09:03.566Z,7.20
2023-02-11T20:12:08.459Z,6.88
2023-02-11T20:15:12.754Z,6.38
2023-02-11T20:18:16.678Z,8.48
2023-02-11T20:21:27.064Z,10.88
2023-02-11T20:24:31.576Z,6.22
2023-02-11T20:27:36.122Z,7.60
2023-02-11T20:30:40.692Z,6.88
2023-02-11T20:33:46.043Z,10.93
2023-02-11T20:36:53.578Z,7.78
2023-02-11T20:39:59.612Z,7.07
2023-02-11T20:43:04.164Z,6.60
2023-02-11T20:46:09.565Z,12.40
2023-02-11T20:49:20.049Z,7.78
2023-02-11T20:52:24.011Z,7.40
2023-02-11T20:55:28.391Z,6.75
2023-02-11T20:58:33.947Z,7.93
2023-02-11T21:01:47.452Z,17.90
2023-02-11T21:04:51.834Z,15.07
2023-02-11T21:07:56.285Z,12.02
2023-02-11T21:11:00.771Z,12.10
2023-02-11T21:14:05.272Z,18.07
2023-02-11T21:17:09.643Z,12.05
2023-02-11T21:20:14.486Z,7.57
2023-02-11T21:23:19.260Z,8.80
2023-02-11T21:26:24.361Z,6.70
2023-02-11T21:29:28.832Z,7.35
2023-02-11T21:32:33.257Z,6.72
2023-02-11T21:35:38.705Z,7.82
2023-02-11T21:41:47.612Z,8.60
2023-02-11T21:44:51.962Z,8.50
2023-02-11T21:47:56.050Z,8.27
2023-02-11T21:51:01.842Z,7.85
2023-02-11T21:54:06.411Z,8.90
2023-02-11T21:57:12.214Z,8.25
2023-02-11T22:00:17.480Z,9.88
2023-02-11T22:03:21.564Z,9.32
2023-02-11T22:06:28.496Z,11.35
2023-02-11T22:09:32.784Z,13.45
2023-02-11T22:12:37.214Z,12.32
2023-02-11T22:15:41.279Z,7.60
2023-02-11T22:18:47.260Z,9.63
2023-02-11T22:21:51.679Z,12.85
2023-02-11T22:24:57.723Z,10.38
2023-02-11T22:28:02.208Z,15.57
2023-02-11T22:31:06.839Z,13.18
2023-02-11T22:34:11.336Z,12.85
2023-02-11T22:37:15.925Z,19.52
2023-02-11T22:40:20.623Z,21.87
2023-02-11T22:43:25.060Z,20.33
2023-02-11T22:46:29.522Z,15.38
2023-02-11T22:49:37.389Z,10.68
2023-02-11T22:52:41.622Z,9.43
2023-02-11T22:55:48.220Z,7.80
2023-02-11T22:58:54.104Z,8.30
2023-02-11T23:01:58.469Z,9.40
2023-02-11T23:05:11.678Z,7.53
2023-02-11T23:08:19.981Z,6.78
2023-02-11T23:11:28.595Z,7.57
2023-02-11T23:14:32.793Z,10.85
2023-02-11T23:17:37.440Z,14.23
2023-02-11T23:20:44.624Z,20.33
2023-02-11T23:23:50.220Z,19.23
2023-02-11T23:26:54.679Z,15.00
2023-02-11T23:29:59.048Z,10.43
2023-02-11T23:33:03.558Z,11.80
2023-02-11T23:36:08.634Z,8.45
2023-02-11T23:39:18.844Z,8.50
2023-02-11T23:42:25.889Z,7.75
2023-02-11T23:45:39.557Z,8.48
2023-02-11T23:48:43.841Z,9.38
2023-02-11T23:51:48.252Z,11.55
2023-02-11T23:54:52.285Z,17.35
2023-02-11T23:57:56.483Z,19.25
